Time,TemperatureF,DewpointF,PressureIn,WindDirection,WindDirectionDegrees,WindSpeedMPH,WindSpeedGustMPH,Humidity,HourlyPrecipIn,Conditions,Clouds,dailyrainin,SolarRadiationWatts/m^2,SoftwareType,DateUTC
2013-02-03 00:01:00,40.0,32.0,-100.00,ENE,61,6.0,18.0,74,0.00,,,0.00,0.000000,,2013-02-03 08:01:00,
2013-02-03 00:11:00,40.0,32.0,-100.00,ENE,61,6.0,18.0,74,0.00,,,0.00,0.000000,,2013-02-03 08:11:00,
2013-02-03 00:22:00,40.0,32.0,-100.00,ENE,61,6.0,18.0,74,0.00,,,0.00,0.000000,,2013-02-03 08:22:00,
2013-02-03 00:52:00,38.0,31.0,-100.00,ENE,69,4.0,12.0,76,0.00,,,0.00,0.000000,,2013-02-03 08:52:00,
2013-02-03 01:02:00,38.0,31.0,-100.00,ENE,69,4.0,12.0,76,0.00,,,0.00,0.000000,,2013-02-03 09:02:00,
2013-02-03 01:11:00,38.0,31.0,-100.00,ENE,69,4.0,12.0,76,0.00,,,0.00,0.000000,,2013-02-03 09:11:00,
2013-02-03 01:21:00,38.0,31.0,-100.00,ENE,69,4.0,12.0,76,0.00,,,0.00,0.000000,,2013-02-03 09:21:00,
2013-02-03 01:52:00,39.0,33.0,-100.00,East,80,7.0,14.0,79,0.00,,,0.00,0.000000,,2013-02-03 09:52:00,
2013-02-03 02:01:00,39.0,33.0,-100.00,East,80,7.0,14.0,79,0.00,,,0.00,0.000000,,2013-02-03 10:01:00,
2013-02-03 02:11:00,39.0,33.0,-100.00,East,80,7.0,14.0,79,0.00,,,0.00,0.000000,,2013-02-03 10:11:00,
2013-02-03 02:21:00,39.0,33.0,-100.00,East,80,7.0,14.0,79,0.00,,,0.00,0.000000,,2013-02-03 10:21:00,
2013-02-03 02:52:00,39.0,32.0,-100.00,ENE,76,4.0,13.0,77,0.00,,,0.00,0.000000,,2013-02-03 10:52:00,
2013-02-03 03:02:00,39.0,32.0,-100.00,ENE,76,4.0,13.0,77,0.00,,,0.00,0.000000,,2013-02-03 11:02:00,
2013-02-03 03:11:00,39.0,32.0,-100.00,ENE,76,4.0,13.0,77,0.00,,,0.00,0.000000,,2013-02-03 11:11:00,
2013-02-03 03:22:00,39.0,32.0,-100.00,ENE,76,4.0,13.0,77,0.00,,,0.00,0.000000,,2013-02-03 11:22:00,
2013-02-03 03:52:00,40.0,32.0,-100.00,WNW,296,5.0,8.0,73,0.00,,,0.00,0.000000,,2013-02-03 11:52:00,
2013-02-03 04:02:00,40.0,32.0,-100.00,WNW,296,5.0,8.0,73,0.00,,,0.00,0.000000,,2013-02-03 12:02:00,
2013-02-03 04:11:00,40.0,32.0,-100.00,WNW,296,5.0,8.0,73,0.00,,,0.00,0.000000,,2013-02-03 12:11:00,
2013-02-03 04:21:00,40.0,32.0,-100.00,WNW,296,5.0,8.0,73,0.00,,,0.00,0.000000,,2013-02-03 12:21:00,
2013-02-03 04:53:00,39.0,32.0,-100.00,NW,306,7.0,8.0,75,0.00,,,-99.99,0.000000,,2013-02-03 12:53:00,
2013-02-03 05:03:00,39.0,32.0,-100.00,NW,306,7.0,8.0,75,0.00,,,-99.99,0.000000,,2013-02-03 13:03:00,
2013-02-03 05:11:00,39.0,32.0,-100.00,NW,306,7.0,8.0,75,0.00,,,-99.99,0.000000,,2013-02-03 13:11:00,
2013-02-03 05:21:00,39.0,32.0,-100.00,NW,306,7.0,8.0,75,0.00,,,-99.99,0.000000,,2013-02-03 13:21:00,
2013-02-03 05:52:00,39.0,32.0,-100.00,WNW,292,12.0,17.0,75,0.00,,,0.00,0.000000,,2013-02-03 13:52:00,
2013-02-03 06:02:00,39.0,32.0,-100.00,WNW,292,12.0,17.0,75,0.00,,,0.00,0.000000,,2013-02-03 14:02:00,
2013-02-03 06:11:00,39.0,32.0,-100.00,WNW,292,12.0,17.0,75,0.00,,,0.00,0.000000,,2013-02-03 14:11:00,
2013-02-03 06:21:00,39.0,32.0,-100.00,WNW,292,12.0,17.0,75,0.00,,,0.00,0.000000,,2013-02-03 14:21:00,
2013-02-03 06:52:00,39.0,31.0,-100.00,NW,319,18.0,21.0,72,0.00,,,0.00,0.000000,,2013-02-03 14:52:00,
2013-02-03 07:03:00,39.0,31.0,-100.00,NW,319,18.0,21.0,72,0.00,,,0.00,0.000000,,2013-02-03 15:03:00,
2013-02-03 07:11:00,39.0,31.0,-100.00,NW,319,18.0,21.0,72,0.00,,,0.00,0.000000,,2013-02-03 15:11:00,
2013-02-03 07:21:00,39.0,31.0,-100.00,NW,319,18.0,21.0,72,0.00,,,0.00,0.000000,,2013-02-03 15:21:00,
2013-02-03 07:52:00,39.0,28.0,-100.00,North,358,8.0,22.0,64,0.00,,,0.00,24.000000,,2013-02-03 15:52:00,
2013-02-03 08:02:00,39.0,28.0,-100.00,North,358,8.0,22.0,64,0.00,,,0.00,24.000000,,2013-02-03 16:02:00,
2013-02-03 08:11:00,39.0,28.0,-100.00,North,358,8.0,22.0,64,0.00,,,0.00,24.000000,,2013-02-03 16:11:00,
2013-02-03 08:21:00,39.0,28.0,-100.00,North,358,8.0,22.0,64,0.00,,,0.00,24.000000,,2013-02-03 16:21:00,
2013-02-03 08:52:00,41.0,27.0,-100.00,NNW,340,7.0,13.0,57,0.00,,,0.00,244.000000,,2013-02-03 16:52:00,
2013-02-03 09:02:00,41.0,27.0,-100.00,NNW,340,7.0,13.0,57,0.00,,,0.00,244.000000,,2013-02-03 17:02:00,
2013-02-03 09:11:00,41.0,27.0,-100.00,NNW,340,7.0,13.0,57,0.00,,,0.00,244.000000,,2013-02-03 17:11:00,
2013-02-03 09:21:00,41.0,27.0,-100.00,NNW,340,7.0,13.0,57,0.00,,,0.00,244.000000,,2013-02-03 17:21:00,
2013-02-03 09:52:00,44.0,25.0,-100.00,NW,326,6.0,12.0,47,0.00,,,0.00,487.000000,,2013-02-03 17:52:00,
2013-02-03 10:02:00,44.0,25.0,-100.00,NW,326,6.0,12.0,47,0.00,,,0.00,487.000000,,2013-02-03 18:02:00,
2013-02-03 10:11:00,44.0,25.0,-100.00,NW,326,6.0,12.0,47,0.00,,,0.00,487.000000,,2013-02-03 18:11:00,
2013-02-03 10:23:00,44.0,25.0,-100.00,NW,326,6.0,12.0,47,0.00,,,0.00,487.000000,,2013-02-03 18:23:00,
2013-02-03 10:52:00,47.0,27.0,-100.00,NW,320,7.0,10.0,46,0.00,,,0.00,670.000000,,2013-02-03 18:52:00,
2013-02-03 11:02:00,47.0,27.0,-100.00,NW,320,7.0,10.0,46,0.00,,,0.00,670.000000,,2013-02-03 19:02:00,
2013-02-03 11:11:00,47.0,27.0,-100.00,NW,320,7.0,10.0,46,0.00,,,0.00,670.000000,,2013-02-03 19:11:00,
2013-02-03 11:21:00,47.0,27.0,-100.00,NW,320,7.0,10.0,46,0.00,,,0.00,670.000000,,2013-02-03 19:21:00,
2013-02-03 11:52:00,50.0,24.0,-100.00,NW,311,9.0,12.0,36,0.00,,,0.00,811.000000,,2013-02-03 19:52:00,
2013-02-03 12:01:00,50.0,24.0,-100.00,NW,311,9.0,12.0,36,0.00,,,0.00,811.000000,,2013-02-03 20:01:00,
2013-02-03 12:11:00,50.0,24.0,-100.00,NW,311,9.0,12.0,36,0.00,,,0.00,811.000000,,2013-02-03 20:11:00,
2013-02-03 12:21:00,50.0,24.0,-100.00,NW,311,9.0,12.0,36,0.00,,,0.00,811.000000,,2013-02-03 20:21:00,
2013-02-03 12:52:00,51.0,21.0,-100.00,NW,317,10.0,15.0,30,0.00,,,0.00,865.000000,,2013-02-03 20:52:00,
2013-02-03 13:03:00,51.0,21.0,-100.00,NW,317,10.0,15.0,30,0.00,,,0.00,865.000000,,2013-02-03 21:03:00,
2013-02-03 13:11:00,51.0,21.0,-100.00,NW,317,10.0,15.0,30,0.00,,,0.00,865.000000,,2013-02-03 21:11:00,
2013-02-03 13:21:00,51.0,21.0,-100.00,NW,317,10.0,15.0,30,0.00,,,0.00,865.000000,,2013-02-03 21:21:00,
2013-02-03 13:52:00,54.0,22.0,-100.00,WNW,296,8.0,15.0,29,0.00,,,0.00,844.000000,,2013-02-03 21:52:00,
2013-02-03 14:01:00,54.0,22.0,-100.00,WNW,296,8.0,15.0,29,0.00,,,0.00,844.000000,,2013-02-03 22:01:00,
2013-02-03 14:11:00,54.0,22.0,-100.00,WNW,296,8.0,15.0,29,0.00,,,0.00,844.000000,,2013-02-03 22:11:00,
2013-02-03 14:21:00,54.0,22.0,-100.00,WNW,296,8.0,15.0,29,0.00,,,0.00,844.000000,,2013-02-03 22:21:00,
2013-02-03 14:52:00,52.0,22.0,-100.00,WNW,294,9.0,16.0,31,0.00,,,0.00,745.000000,,2013-02-03 22:52:00,
2013-02-03 15:01:00,52.0,22.0,-100.00,WNW,294,9.0,16.0,31,0.00,,,0.00,745.000000,,2013-02-03 23:01:00,
2013-02-03 15:11:00,52.0,22.0,-100.00,WNW,294,9.0,16.0,31,0.00,,,0.00,745.000000,,2013-02-03 23:11:00,
2013-02-03 15:21:00,52.0,22.0,-100.00,WNW,294,9.0,16.0,31,0.00,,,0.00,745.000000,,2013-02-03 23:21:00,
2013-02-03 15:52:00,52.0,24.0,-100.00,NW,306,10.0,21.0,33,0.00,,,0.00,561.000000,,2013-02-03 23:52:00,
2013-02-03 16:01:00,52.0,24.0,-100.00,NW,306,10.0,21.0,33,0.00,,,0.00,561.000000,,2013-02-04 00:01:00,
2013-02-03 16:11:00,52.0,24.0,-100.00,NW,306,10.0,21.0,33,0.00,,,0.00,561.000000,,2013-02-04 00:11:00,
2013-02-03 16:21:00,52.0,24.0,-100.00,NW,306,10.0,21.0,33,0.00,,,0.00,561.000000,,2013-02-04 00:21:00,
2013-02-03 16:52:00,52.0,25.0,-100.00,WNW,291,8.0,18.0,35,0.00,,,0.00,328.000000,,2013-02-04 00:52:00,
2013-02-03 17:01:00,52.0,25.0,-100.00,WNW,291,8.0,18.0,35,0.00,,,0.00,328.000000,,2013-02-04 01:01:00,
2013-02-03 17:11:00,52.0,25.0,-100.00,WNW,291,8.0,18.0,35,0.00,,,0.00,328.000000,,2013-02-04 01:11:00,
2013-02-03 17:21:00,52.0,25.0,-100.00,WNW,291,8.0,18.0,35,0.00,,,0.00,328.000000,,2013-02-04 01:21:00,
2013-02-03 17:52:00,45.0,24.0,-100.00,NW,321,8.0,14.0,43,0.00,,,0.00,86.000000,,2013-02-04 01:52:00,
2013-02-03 18:01:00,45.0,24.0,-100.00,NW,321,8.0,14.0,43,0.00,,,0.00,86.000000,,2013-02-04 02:01:00,
2013-02-03 18:11:00,45.0,24.0,-100.00,NW,321,8.0,14.0,43,0.00,,,0.00,86.000000,,2013-02-04 02:11:00,
2013-02-03 18:21:00,45.0,24.0,-100.00,NW,321,8.0,14.0,43,0.00,,,0.00,86.000000,,2013-02-04 02:21:00,
2013-02-03 18:52:00,45.0,25.0,-100.00,NW,325,9.0,11.0,45,0.00,,,-99.99,0.000000,,2013-02-04 02:52:00,
2013-02-03 19:01:00,45.0,25.0,-100.00,NW,325,9.0,11.0,45,0.00,,,-99.99,0.000000,,2013-02-04 03:01:00,
2013-02-03 19:11:00,45.0,25.0,-100.00,NW,325,9.0,11.0,45,0.00,,,-99.99,0.000000,,2013-02-04 03:11:00,
2013-02-03 19:21:00,45.0,25.0,-100.00,NW,325,9.0,11.0,45,0.00,,,-99.99,0.000000,,2013-02-04 03:21:00,
2013-02-03 19:52:00,43.0,23.0,-100.00,NNW,328,10.0,14.0,45,0.00,,,0.00,0.000000,,2013-02-04 03:52:00,
2013-02-03 20:01:00,43.0,23.0,-100.00,NNW,328,10.0,14.0,45,0.00,,,0.00,0.000000,,2013-02-04 04:01:00,
2013-02-03 20:11:00,43.0,23.0,-100.00,NNW,328,10.0,14.0,45,0.00,,,0.00,0.000000,,2013-02-04 04:11:00,
2013-02-03 20:21:00,43.0,23.0,-100.00,NNW,328,10.0,14.0,45,0.00,,,0.00,0.000000,,2013-02-04 04:21:00,
2013-02-03 20:52:00,44.0,23.0,-100.00,NNW,328,7.0,13.0,43,0.00,,,-99.99,0.000000,,2013-02-04 04:52:00,
2013-02-03 21:03:00,44.0,23.0,-100.00,NNW,328,7.0,13.0,43,0.00,,,-99.99,0.000000,,2013-02-04 05:03:00,
2013-02-03 21:11:00,44.0,23.0,-100.00,NNW,328,7.0,13.0,43,0.00,,,-99.99,0.000000,,2013-02-04 05:11:00,
2013-02-03 21:22:00,44.0,23.0,-100.00,NNW,328,7.0,13.0,43,0.00,,,-99.99,0.000000,,2013-02-04 05:22:00,
2013-02-03 21:52:00,43.0,23.0,-100.00,NW,325,12.0,15.0,44,0.00,,,0.00,0.000000,,2013-02-04 05:52:00,
2013-02-03 22:01:00,43.0,23.0,-100.00,NW,325,12.0,15.0,44,0.00,,,0.00,0.000000,,2013-02-04 06:01:00,
2013-02-03 22:11:00,43.0,23.0,-100.00,NW,325,12.0,15.0,44,0.00,,,0.00,0.000000,,2013-02-04 06:11:00,
2013-02-03 22:21:00,43.0,23.0,-100.00,NW,325,12.0,15.0,44,0.00,,,0.00,0.000000,,2013-02-04 06:21:00,
2013-02-03 22:52:00,41.0,21.0,-100.00,NNW,329,12.0,15.0,45,0.00,,,0.00,0.000000,,2013-02-04 06:52:00,
2013-02-03 23:01:00,41.0,21.0,-100.00,NNW,329,12.0,15.0,45,0.00,,,0.00,0.000000,,2013-02-04 07:01:00,
2013-02-03 23:11:00,41.0,21.0,-100.00,NNW,329,12.0,15.0,45,0.00,,,0.00,0.000000,,2013-02-04 07:11:00,
2013-02-03 23:21:00,41.0,21.0,-100.00,NNW,329,12.0,15.0,45,0.00,,,0.00,0.000000,,2013-02-04 07:21:00,
2013-02-03 23:52:00,41.0,23.0,-100.00,NNW,329,9.0,14.0,49,0.00,,,0.00,0.000000,,2013-02-04 07:52:00,